sensor_id;sensor_type;location;lat;lon;timestamp;pressure;altitude;pressure_sealevel;temperature;humidity
60345;BME280;46188;52.324;8.032;2024-02-16T00:00:13;99984.19;;;9.70;100.00
60345;BME280;46188;52.324;8.032;2024-02-16T00:02:41;99979.81;;;9.69;100.00
60345;BME280;46188;52.324;8.032;2024-02-16T00:05:07;99981.56;;;9.69;100.00
60345;BME280;46188;52.324;8.032;2024-02-16T00:07:33;99978.94;;;9.69;100.00
60345;BME280;46188;52.324;8.032;2024-02-16T00:09:59;99977.16;;;9.68;100.00
60345;BME280;46188;52.324;8.032;2024-02-16T00:12:24;99971.88;;;9.68;100.00
60345;BME280;46188;52.324;8.032;2024-02-16T00:14:49;99971.88;;;9.68;100.00
60345;BME280;46188;52.324;8.032;2024-02-16T00:17:15;99964.88;;;9.67;100.00
60345;BME280;46188;52.324;8.032;2024-02-16T00:19:40;99973.66;;;9.69;100.00
60345;BME280;46188;52.324;8.032;2024-02-16T00:22:05;99965.78;;;9.70;100.00
60345;BME280;46188;52.324;8.032;2024-02-16T00:24:33;99964.91;;;9.73;100.00
60345;BME280;46188;52.324;8.032;2024-02-16T00:26:59;99970.16;;;9.73;100.00
60345;BME280;46188;52.324;8.032;2024-02-16T00:29:24;99979.84;;;9.75;100.00
60345;BME280;46188;52.324;8.032;2024-02-16T00:31:49;99980.72;;;9.77;100.00
60345;BME280;46188;52.324;8.032;2024-02-16T00:34:15;99973.72;;;9.79;100.00
60345;BME280;46188;52.324;8.032;2024-02-16T00:36:40;99971.09;;;9.83;100.00
60345;BME280;46188;52.324;8.032;2024-02-16T00:39:05;99955.31;;;9.84;100.00
60345;BME280;46188;52.324;8.032;2024-02-16T00:41:31;99967.63;;;9.87;100.00
60345;BME280;46188;52.324;8.032;2024-02-16T00:43:56;99965.88;;;9.89;100.00
60345;BME280;46188;52.324;8.032;2024-02-16T00:46:22;99967.66;;;9.91;100.00
60345;BME280;46188;52.324;8.032;2024-02-16T00:48:48;99965.91;;;9.93;100.00
60345;BME280;46188;52.324;8.032;2024-02-16T00:51:13;99969.41;;;9.94;100.00
60345;BME280;46188;52.324;8.032;2024-02-16T00:53:38;99957.13;;;9.96;100.00
60345;BME280;46188;52.324;8.032;2024-02-16T00:56:04;99964.19;;;9.98;100.00
60345;BME280;46188;52.324;8.032;2024-02-16T00:58:29;99961.56;;;10.00;100.00
60345;BME280;46188;52.324;8.032;2024-02-16T01:00:54;99966.84;;;10.02;100.00
60345;BME280;46188;52.324;8.032;2024-02-16T01:03:20;99970.34;;;10.04;100.00
60345;BME280;46188;52.324;8.032;2024-02-16T01:05:47;99965.97;;;10.06;100.00
60345;BME280;46188;52.324;8.032;2024-02-16T01:08:12;99965.09;;;10.07;100.00
60345;BME280;46188;52.324;8.032;2024-02-16T01:10:38;99961.56;;;10.08;100.00
60345;BME280;46188;52.324;8.032;2024-02-16T01:13:03;99952.81;;;10.10;100.00
60345;BME280;46188;52.324;8.032;2024-02-16T01:15:30;99951.06;;;10.11;100.00
60345;BME280;46188;52.324;8.032;2024-02-16T01:17:55;99960.72;;;10.12;100.00
60345;BME280;46188;52.324;8.032;2024-02-16T01:20:21;99954.59;;;10.13;100.00
60345;BME280;46188;52.324;8.032;2024-02-16T01:22:46;99949.34;;;10.14;100.00
60345;BME280;46188;52.324;8.032;2024-02-16T01:25:11;99952.84;;;10.15;100.00
60345;BME280;46188;52.324;8.032;2024-02-16T01:27:36;99948.47;;;10.15;100.00
60345;BME280;46188;52.324;8.032;2024-02-16T01:30:02;99951.09;;;10.17;100.00
60345;BME280;46188;52.324;8.032;2024-02-16T01:32:28;99951.97;;;10.19;100.00
60345;BME280;46188;52.324;8.032;2024-02-16T01:34:53;99945.84;;;10.20;100.00
60345;BME280;46188;52.324;8.032;2024-02-16T01:37:18;99943.22;;;10.22;100.00
60345;BME280;46188;52.324;8.032;2024-02-16T01:39:44;99939.69;;;10.23;100.00
60345;BME280;46188;52.324;8.032;2024-02-16T01:42:09;99941.47;;;10.24;100.00
60345;BME280;46188;52.324;8.032;2024-02-16T01:44:34;99940.63;;;10.26;100.00
60345;BME280;46188;52.324;8.032;2024-02-16T01:47:00;99929.19;;;10.27;100.00
60345;BME280;46188;52.324;8.032;2024-02-16T01:49:26;99932.72;;;10.28;100.00
60345;BME280;46188;52.324;8.032;2024-02-16T01:51:51;99930.09;;;10.29;100.00
60345;BME280;46188;52.324;8.032;2024-02-16T01:54:17;99923.06;;;10.30;100.00
60345;BME280;46188;52.324;8.032;2024-02-16T01:56:43;99923.06;;;10.31;100.00
60345;BME280;46188;52.324;8.032;2024-02-16T01:59:09;99923.97;;;10.33;100.00
60345;BME280;46188;52.324;8.032;2024-02-16T02:01:34;99923.09;;;10.33;100.00
60345;BME280;46188;52.324;8.032;2024-02-16T02:04:00;99923.13;;;10.34;100.00
60345;BME280;46188;52.324;8.032;2024-02-16T02:06:26;99912.56;;;10.34;100.00
60345;BME280;46188;52.324;8.032;2024-02-16T02:08:51;99909.94;;;10.36;100.00
60345;BME280;46188;52.324;8.032;2024-02-16T02:11:16;99912.56;;;10.36;100.00
60345;BME280;46188;52.324;8.032;2024-02-16T02:13:42;99914.31;;;10.36;100.00
60345;BME280;46188;52.324;8.032;2024-02-16T02:16:08;99913.44;;;10.37;100.00
60345;BME280;46188;52.324;8.032;2024-02-16T02:18:34;99911.69;;;10.37;100.00
60345;BME280;46188;52.324;8.032;2024-02-16T02:21:00;99909.03;;;10.36;100.00
60345;BME280;46188;52.324;8.032;2024-02-16T02:23:25;99905.53;;;10.37;100.00
60345;BME280;46188;52.324;8.032;2024-02-16T02:25:50;99914.31;;;10.37;100.00
60345;BME280;46188;52.324;8.032;2024-02-16T02:28:15;99906.41;;;10.37;100.00
60345;BME280;46188;52.324;8.032;2024-02-16T02:30:41;99905.56;;;10.38;100.00
60345;BME280;46188;52.324;8.032;2024-02-16T02:33:06;99897.66;;;10.38;100.00
60345;BME280;46188;52.324;8.032;2024-02-16T02:35:32;99901.16;;;10.39;100.00
60345;BME280;46188;52.324;8.032;2024-02-16T02:37:57;99902.00;;;10.38;100.00
60345;BME280;46188;52.324;8.032;2024-02-16T02:40:22;99897.66;;;10.40;100.00
60345;BME280;46188;52.324;8.032;2024-02-16T02:42:47;99893.25;;;10.39;100.00
60345;BME280;46188;52.324;8.032;2024-02-16T02:45:13;99893.25;;;10.39;100.00
60345;BME280;46188;52.324;8.032;2024-02-16T02:47:38;99885.34;;;10.39;100.00
60345;BME280;46188;52.324;8.032;2024-02-16T02:50:04;99891.47;;;10.39;100.00
60345;BME280;46188;52.324;8.032;2024-02-16T02:52:29;99881.84;;;10.40;100.00
60345;BME280;46188;52.324;8.032;2024-02-16T02:54:55;99888.00;;;10.42;100.00
60345;BME280;46188;52.324;8.032;2024-02-16T02:57:20;99880.09;;;10.43;100.00
60345;BME280;46188;52.324;8.032;2024-02-16T02:59:45;99880.09;;;10.43;100.00
60345;BME280;46188;52.324;8.032;2024-02-16T03:02:10;99874.81;;;10.43;100.00
60345;BME280;46188;52.324;8.032;2024-02-16T03:04:36;99875.69;;;10.44;100.00
60345;BME280;46188;52.324;8.032;2024-02-16T03:07:01;99870.41;;;10.45;100.00
60345;BME280;46188;52.324;8.032;2024-02-16T03:09:26;99866.03;;;10.46;100.00
60345;BME280;46188;52.324;8.032;2024-02-16T03:11:52;99864.28;;;10.46;100.00
60345;BME280;46188;52.324;8.032;2024-02-16T03:14:18;99867.78;;;10.47;100.00
60345;BME280;46188;52.324;8.032;2024-02-16T03:16:43;99860.75;;;10.49;100.00
60345;BME280;46188;52.324;8.032;2024-02-16T03:19:08;99854.63;;;10.50;100.00
60345;BME280;46188;52.324;8.032;2024-02-16T03:21:34;99857.25;;;10.50;100.00
60345;BME280;46188;52.324;8.032;2024-02-16T03:23:59;99861.66;;;10.51;100.00
60345;BME280;46188;52.324;8.032;2024-02-16T03:26:24;99859.03;;;10.52;100.00
60345;BME280;46188;52.324;8.032;2024-02-16T03:28:49;99856.38;;;10.54;100.00
60345;BME280;46188;52.324;8.032;2024-02-16T03:31:22;99859.00;;;10.54;100.00
60345;BME280;46188;52.324;8.032;2024-02-16T03:33:48;99860.78;;;10.57;100.00
60345;BME280;46188;52.324;8.032;2024-02-16T03:36:14;99851.09;;;10.57;100.00
60345;BME280;46188;52.324;8.032;2024-02-16T03:38:43;99852.00;;;10.58;100.00
60345;BME280;46188;52.324;8.032;2024-02-16T03:41:13;99863.41;;;10.58;100.00
60345;BME280;46188;52.324;8.032;2024-02-16T03:43:42;99856.38;;;10.59;100.00
60345;BME280;46188;52.324;8.032;2024-02-16T03:46:08;99863.41;;;10.58;100.00
60345;BME280;46188;52.324;8.032;2024-02-16T03:48:33;99857.28;;;10.59;100.00
60345;BME280;46188;52.324;8.032;2024-02-16T03:50:58;99864.28;;;10.60;100.00
60345;BME280;46188;52.324;8.032;2024-02-16T03:53:24;99863.44;;;10.61;100.00
60345;BME280;46188;52.324;8.032;2024-02-16T03:55:49;99864.28;;;10.62;100.00
60345;BME280;46188;52.324;8.032;2024-02-16T03:58:15;99865.16;;;10.62;100.00
60345;BME280;46188;52.324;8.032;2024-02-16T04:00:40;99868.72;;;10.64;100.00
60345;BME280;46188;52.324;8.032;2024-02-16T04:03:05;99871.34;;;10.66;100.00
60345;BME280;46188;52.324;8.032;2024-02-16T04:05:30;99868.72;;;10.67;100.00
60345;BME280;46188;52.324;8.032;2024-02-16T04:07:57;99872.22;;;10.68;100.00
60345;BME280;46188;52.324;8.032;2024-02-16T04:10:26;99871.31;;;10.69;100.00
60345;BME280;46188;52.324;8.032;2024-02-16T04:12:52;99865.19;;;10.70;100.00
60345;BME280;46188;52.324;8.032;2024-02-16T04:15:17;99871.31;;;10.72;100.00
60345;BME280;46188;52.324;8.032;2024-02-16T04:17:42;99869.59;;;10.73;100.00
60345;BME280;46188;52.324;8.032;2024-02-16T04:20:08;99862.56;;;10.73;100.00
60345;BME280;46188;52.324;8.032;2024-02-16T04:22:34;99864.31;;;10.74;100.00
60345;BME280;46188;52.324;8.032;2024-02-16T04:25:02;99862.56;;;10.76;100.00
60345;BME280;46188;52.324;8.032;2024-02-16T04:27:29;99859.94;;;10.76;100.00
60345;BME280;46188;52.324;8.032;2024-02-16T04:29:54;99863.44;;;10.77;100.00
60345;BME280;46188;52.324;8.032;2024-02-16T04:32:19;99868.72;;;10.78;100.00
60345;BME280;46188;52.324;8.032;2024-02-16T04:34:44;99867.84;;;10.78;100.00
60345;BME280;46188;52.324;8.032;2024-02-16T04:37:10;99873.97;;;10.78;100.00
60345;BME280;46188;52.324;8.032;2024-02-16T04:39:35;99870.47;;;10.78;100.00
60345;BME280;46188;52.324;8.032;2024-02-16T04:42:00;99866.94;;;10.79;100.00
60345;BME280;46188;52.324;8.032;2024-02-16T04:44:25;99859.03;;;10.79;100.00
60345;BME280;46188;52.324;8.032;2024-02-16T04:46:51;99846.75;;;10.78;100.00
60345;BME280;46188;52.324;8.032;2024-02-16T04:49:17;99852.03;;;10.78;100.00
60345;BME280;46188;52.324;8.032;2024-02-16T04:51:43;99850.25;;;10.75;100.00
60345;BME280;46188;52.324;8.032;2024-02-16T04:54:08;99847.59;;;10.72;100.00
60345;BME280;46188;52.324;8.032;2024-02-16T04:56:33;99849.38;;;10.68;100.00
60345;BME280;46188;52.324;8.032;2024-02-16T04:58:58;99842.34;;;10.64;100.00
60345;BME280;46188;52.324;8.032;2024-02-16T05:01:24;99847.59;;;10.58;100.00
60345;BME280;46188;52.324;8.032;2024-02-16T05:03:49;99848.50;;;10.52;100.00
60345;BME280;46188;52.324;8.032;2024-02-16T05:06:15;99851.13;;;10.46;100.00
60345;BME280;46188;52.324;8.032;2024-02-16T05:08:40;99861.63;;;10.40;100.00
60345;BME280;46188;52.324;8.032;2024-02-16T05:11:05;99866.88;;;10.36;100.00
60345;BME280;46188;52.324;8.032;2024-02-16T05:13:32;99863.38;;;10.32;100.00
60345;BME280;46188;52.324;8.032;2024-02-16T05:15:57;99853.69;;;10.28;100.00
60345;BME280;46188;52.324;8.032;2024-02-16T05:18:23;99841.38;;;10.25;100.00
60345;BME280;46188;52.324;8.032;2024-02-16T05:20:48;99848.41;;;10.22;100.00
60345;BME280;46188;52.324;8.032;2024-02-16T05:23:13;99850.16;;;10.20;100.00
60345;BME280;46188;52.324;8.032;2024-02-16T05:25:38;99849.25;;;10.19;100.00
60345;BME280;46188;52.324;8.032;2024-02-16T05:28:04;99844.88;;;10.18;100.00
60345;BME280;46188;52.324;8.032;2024-02-16T05:30:29;99844.88;;;10.16;100.00
60345;BME280;46188;52.324;8.032;2024-02-16T05:32:54;99852.78;;;10.15;100.00
60345;BME280;46188;52.324;8.032;2024-02-16T05:35:23;99853.63;;;10.14;100.00
60345;BME280;46188;52.324;8.032;2024-02-16T05:37:52;99859.78;;;10.13;100.00
60345;BME280;46188;52.324;8.032;2024-02-16T05:40:18;99860.66;;;10.12;100.00
60345;BME280;46188;52.324;8.032;2024-02-16T05:42:47;99850.97;;;10.11;100.00
60345;BME280;46188;52.324;8.032;2024-02-16T05:45:13;99853.63;;;10.11;100.00
60345;BME280;46188;52.324;8.032;2024-02-16T05:47:38;99847.47;;;10.10;100.00
60345;BME280;46188;52.324;8.032;2024-02-16T05:50:04;99857.16;;;10.11;100.00
60345;BME280;46188;52.324;8.032;2024-02-16T05:52:30;99858.88;;;10.12;100.00
60345;BME280;46188;52.324;8.032;2024-02-16T05:54:55;99858.03;;;10.13;100.00
60345;BME280;46188;52.324;8.032;2024-02-16T05:57:21;99862.41;;;10.16;100.00
60345;BME280;46188;52.324;8.032;2024-02-16T05:59:46;99865.94;;;10.16;100.00
60345;BME280;46188;52.324;8.032;2024-02-16T06:02:11;99858.91;;;10.19;100.00
60345;BME280;46188;52.324;8.032;2024-02-16T06:04:38;99860.69;;;10.20;100.00
60345;BME280;46188;52.324;8.032;2024-02-16T06:07:03;99850.16;;;10.21;100.00
60345;BME280;46188;52.324;8.032;2024-02-16T06:09:29;99852.75;;;10.23;100.00
60345;BME280;46188;52.324;8.032;2024-02-16T06:12:00;99846.63;;;10.24;100.00
60345;BME280;46188;52.324;8.032;2024-02-16T06:14:25;99842.25;;;10.26;100.00
60345;BME280;46188;52.324;8.032;2024-02-16T06:16:56;99850.16;;;10.27;100.00
60345;BME280;46188;52.324;8.032;2024-02-16T06:19:21;99849.28;;;10.28;100.00
60345;BME280;46188;52.324;8.032;2024-02-16T06:21:46;99854.56;;;10.30;100.00
60345;BME280;46188;52.324;8.032;2024-02-16T06:24:12;99851.06;;;10.29;100.00
60345;BME280;46188;52.324;8.032;2024-02-16T06:26:37;99851.94;;;10.30;100.00
60345;BME280;46188;52.324;8.032;2024-02-16T06:29:02;99850.16;;;10.30;100.00
60345;BME280;46188;52.324;8.032;2024-02-16T06:31:27;99852.78;;;10.30;100.00
60345;BME280;46188;52.324;8.032;2024-02-16T06:33:52;99857.19;;;10.31;100.00
60345;BME280;46188;52.324;8.032;2024-02-16T06:36:18;99854.56;;;10.31;100.00
60345;BME280;46188;52.324;8.032;2024-02-16T06:38:43;99853.66;;;10.31;100.00
60345;BME280;46188;52.324;8.032;2024-02-16T06:41:09;99858.97;;;10.29;100.00
60345;BME280;46188;52.324;8.032;2024-02-16T06:43:35;99862.47;;;10.28;100.00
60345;BME280;46188;52.324;8.032;2024-02-16T06:46:00;99870.34;;;10.25;100.00
60345;BME280;46188;52.324;8.032;2024-02-16T06:48:25;99866.84;;;10.23;100.00
60345;BME280;46188;52.324;8.032;2024-02-16T06:50:51;99865.94;;;10.23;100.00
60345;BME280;46188;52.324;8.032;2024-02-16T06:53:16;99865.06;;;10.22;100.00
60345;BME280;46188;52.324;8.032;2024-02-16T06:55:42;99872.97;;;10.22;100.00
60345;BME280;46188;52.324;8.032;2024-02-16T06:58:07;99873.84;;;10.23;100.00
60345;BME280;46188;52.324;8.032;2024-02-16T07:00:32;99879.13;;;10.24;100.00
60345;BME280;46188;52.324;8.032;2024-02-16T07:02:58;99877.38;;;10.23;100.00
60345;BME280;46188;52.324;8.032;2024-02-16T07:05:23;99884.38;;;10.26;100.00
60345;BME280;46188;52.324;8.032;2024-02-16T07:07:48;99889.66;;;10.27;100.00
60345;BME280;46188;52.324;8.032;2024-02-16T07:10:15;99890.56;;;10.29;100.00
60345;BME280;46188;52.324;8.032;2024-02-16T07:12:40;99887.03;;;10.30;100.00
60345;BME280;46188;52.324;8.032;2024-02-16T07:15:06;99885.31;;;10.32;100.00
60345;BME280;46188;52.324;8.032;2024-02-16T07:17:31;99882.69;;;10.36;100.00
60345;BME280;46188;52.324;8.032;2024-02-16T07:19:56;99880.94;;;10.39;100.00
60345;BME280;46188;52.324;8.032;2024-02-16T07:22:22;99882.72;;;10.43;100.00
60345;BME280;46188;52.324;8.032;2024-02-16T07:24:47;99883.59;;;10.45;100.00
60345;BME280;46188;52.324;8.032;2024-02-16T07:27:13;99880.09;;;10.48;100.00
60345;BME280;46188;52.324;8.032;2024-02-16T07:29:38;99880.97;;;10.51;100.00
60345;BME280;46188;52.324;8.032;2024-02-16T07:32:04;99886.25;;;10.55;100.00
60345;BME280;46188;52.324;8.032;2024-02-16T07:34:29;99884.50;;;10.57;100.00
60345;BME280;46188;52.324;8.032;2024-02-16T07:36:55;99883.63;;;10.61;100.00
60345;BME280;46188;52.324;8.032;2024-02-16T07:39:20;99894.16;;;10.64;100.00
60345;BME280;46188;52.324;8.032;2024-02-16T07:41:47;99888.03;;;10.66;100.00
60345;BME280;46188;52.324;8.032;2024-02-16T07:44:13;99887.16;;;10.70;100.00
60345;BME280;46188;52.324;8.032;2024-02-16T07:46:41;99884.53;;;10.75;100.00
60345;BME280;46188;52.324;8.032;2024-02-16T07:49:07;99884.53;;;10.80;100.00
60345;BME280;46188;52.324;8.032;2024-02-16T07:51:32;99882.75;;;10.83;100.00
60345;BME280;46188;52.324;8.032;2024-02-16T07:53:57;99882.78;;;10.88;100.00
60345;BME280;46188;52.324;8.032;2024-02-16T07:56:23;99885.41;;;10.93;100.00
60345;BME280;46188;52.324;8.032;2024-02-16T07:58:48;99878.38;;;10.96;100.00
60345;BME280;46188;52.324;8.032;2024-02-16T08:01:13;99888.03;;;11.00;100.00
60345;BME280;46188;52.324;8.032;2024-02-16T08:03:41;99896.81;;;11.05;100.00
60345;BME280;46188;52.324;8.032;2024-02-16T08:06:06;99898.59;;;11.10;100.00
60345;BME280;46188;52.324;8.032;2024-02-16T08:08:32;99890.69;;;11.14;100.00
60345;BME280;46188;52.324;8.032;2024-02-16T08:10:57;99898.59;;;11.19;100.00
60345;BME280;46188;52.324;8.032;2024-02-16T08:13:22;99892.44;;;11.23;100.00
60345;BME280;46188;52.324;8.032;2024-02-16T08:15:47;99898.56;;;11.28;100.00
60345;BME280;46188;52.324;8.032;2024-02-16T08:18:13;99895.94;;;11.33;100.00
60345;BME280;46188;52.324;8.032;2024-02-16T08:20:38;99902.97;;;11.38;100.00
60345;BME280;46188;52.324;8.032;2024-02-16T08:23:04;99896.81;;;11.42;100.00
60345;BME280;46188;52.324;8.032;2024-02-16T08:25:29;99899.44;;;11.47;100.00
60345;BME280;46188;52.324;8.032;2024-02-16T08:27:55;99907.31;;;11.53;100.00
60345;BME280;46188;52.324;8.032;2024-02-16T08:30:21;99910.84;;;11.58;100.00
60345;BME280;46188;52.324;8.032;2024-02-16T08:32:47;99903.81;;;11.62;100.00
60345;BME280;46188;52.324;8.032;2024-02-16T08:35:13;99908.19;;;11.66;100.00
60345;BME280;46188;52.324;8.032;2024-02-16T08:37:40;99909.94;;;11.70;100.00
60345;BME280;46188;52.324;8.032;2024-02-16T08:40:06;99906.41;;;11.74;100.00
60345;BME280;46188;52.324;8.032;2024-02-16T08:42:31;99916.09;;;11.78;100.00
60345;BME280;46188;52.324;8.032;2024-02-16T08:44:56;99918.69;;;11.81;100.00
60345;BME280;46188;52.324;8.032;2024-02-16T08:47:25;99917.81;;;11.87;100.00
60345;BME280;46188;52.324;8.032;2024-02-16T08:49:50;99916.06;;;11.92;100.00
60345;BME280;46188;52.324;8.032;2024-02-16T08:52:15;99912.50;;;11.98;100.00
60345;BME280;46188;52.324;8.032;2024-02-16T08:54:42;99915.16;;;12.03;100.00
60345;BME280;46188;52.324;8.032;2024-02-16T08:57:07;99921.28;;;12.09;100.00
60345;BME280;46188;52.324;8.032;2024-02-16T08:59:33;99908.94;;;12.14;100.00
60345;BME280;46188;52.324;8.032;2024-02-16T09:01:59;99922.13;;;12.21;100.00
60345;BME280;46188;52.324;8.032;2024-02-16T09:04:24;99917.69;;;12.26;100.00
60345;BME280;46188;52.324;8.032;2024-02-16T09:06:50;99918.53;;;12.31;100.00
60345;BME280;46188;52.324;8.032;2024-02-16T09:09:17;99908.81;;;12.37;100.00
60345;BME280;46188;52.324;8.032;2024-02-16T09:11:43;99922.88;;;12.44;100.00
60345;BME280;46188;52.324;8.032;2024-02-16T09:14:08;99925.50;;;12.52;100.00
60345;BME280;46188;52.324;8.032;2024-02-16T09:16:33;99926.31;;;12.59;100.00
60345;BME280;46188;52.324;8.032;2024-02-16T09:18:59;99928.94;;;12.63;100.00
60345;BME280;46188;52.324;8.032;2024-02-16T09:21:24;99926.28;;;12.69;100.00
60345;BME280;46188;52.324;8.032;2024-02-16T09:23:52;99929.78;;;12.73;100.00
60345;BME280;46188;52.324;8.032;2024-02-16T09:26:17;99946.50;;;12.77;100.00
60345;BME280;46188;52.324;8.032;2024-02-16T09:28:43;99934.13;;;12.79;100.00
60345;BME280;46188;52.324;8.032;2024-02-16T09:31:09;99943.81;;;12.83;100.00
60345;BME280;46188;52.324;8.032;2024-02-16T09:33:34;99948.19;;;12.85;100.00
60345;BME280;46188;52.324;8.032;2024-02-16T09:36:02;99944.66;;;12.86;100.00
60345;BME280;46188;52.324;8.032;2024-02-16T09:38:29;99954.34;;;12.87;100.00
60345;BME280;46188;52.324;8.032;2024-02-16T09:40:55;99957.88;;;12.89;100.00
60345;BME280;46188;52.324;8.032;2024-02-16T09:43:24;99956.97;;;12.89;100.00
60345;BME280;46188;52.324;8.032;2024-02-16T09:45:53;99965.81;;;12.92;100.00
60345;BME280;46188;52.324;8.032;2024-02-16T09:48:18;99957.81;;;12.96;100.00
60345;BME280;46188;52.324;8.032;2024-02-16T09:50:45;99962.22;;;12.98;100.00
60345;BME280;46188;52.324;8.032;2024-02-16T09:53:11;99961.31;;;13.01;100.00
60345;BME280;46188;52.324;8.032;2024-02-16T09:55:37;99966.59;;;13.02;100.00
60345;BME280;46188;52.324;8.032;2024-02-16T09:58:02;99969.22;;;13.04;100.00
60345;BME280;46188;52.324;8.032;2024-02-16T10:00:30;99975.41;;;13.04;100.00
60345;BME280;46188;52.324;8.032;2024-02-16T10:02:55;99970.13;;;13.03;100.00
60345;BME280;46188;52.324;8.032;2024-02-16T10:05:21;99969.22;;;13.02;100.00
60345;BME280;46188;52.324;8.032;2024-02-16T10:07:46;99979.81;;;13.02;100.00
60345;BME280;46188;52.324;8.032;2024-02-16T10:10:28;99986.88;;;13.05;100.00
60345;BME280;46188;52.324;8.032;2024-02-16T10:13:04;99971.88;;;13.05;100.00
60345;BME280;46188;52.324;8.032;2024-02-16T10:15:30;99986.88;;;13.05;100.00
60345;BME280;46188;52.324;8.032;2024-02-16T10:18:04;99983.34;;;13.06;100.00
60345;BME280;46188;52.324;8.032;2024-02-16T10:20:30;99985.09;;;13.07;100.00
60345;BME280;46188;52.324;8.032;2024-02-16T10:23:04;99986.00;;;13.06;100.00
60345;BME280;46188;52.324;8.032;2024-02-16T10:25:29;99984.22;;;13.06;100.00
60345;BME280;46188;52.324;8.032;2024-02-16T10:27:57;99999.22;;;13.07;100.00
60345;BME280;46188;52.324;8.032;2024-02-16T10:30:25;100006.25;;;13.07;100.00
60345;BME280;46188;52.324;8.032;2024-02-16T10:32:54;100008.91;;;13.07;100.00
60345;BME280;46188;52.324;8.032;2024-02-16T10:35:19;100008.03;;;13.06;100.00
60345;BME280;46188;52.324;8.032;2024-02-16T10:37:47;100013.31;;;13.06;100.00
60345;BME280;46188;52.324;8.032;2024-02-16T10:40:13;100019.50;;;13.05;100.00
60345;BME280;46188;52.324;8.032;2024-02-16T10:42:45;100027.44;;;13.05;100.00
60345;BME280;46188;52.324;8.032;2024-02-16T10:45:11;100023.91;;;13.05;100.00
60345;BME280;46188;52.324;8.032;2024-02-16T10:47:38;100036.28;;;13.04;100.00
60345;BME280;46188;52.324;8.032;2024-02-16T10:50:04;100037.16;;;13.05;100.00
60345;BME280;46188;52.324;8.032;2024-02-16T10:52:31;100036.28;;;13.04;100.00
60345;BME280;46188;52.324;8.032;2024-02-16T10:54:57;100041.56;;;13.04;100.00
60345;BME280;46188;52.324;8.032;2024-02-16T10:57:23;100040.66;;;13.05;100.00
60345;BME280;46188;52.324;8.032;2024-02-16T10:59:52;100044.22;;;13.04;100.00
60345;BME280;46188;52.324;8.032;2024-02-16T11:02:19;100030.97;;;13.04;100.00
60345;BME280;46188;52.324;8.032;2024-02-16T11:04:46;100045.09;;;13.03;100.00
60345;BME280;46188;52.324;8.032;2024-02-16T11:07:15;100048.59;;;13.05;100.00
60345;BME280;46188;52.324;8.032;2024-02-16T11:09:41;100049.50;;;13.06;100.00
60345;BME280;46188;52.324;8.032;2024-02-16T11:12:08;100053.00;;;13.08;100.00
60345;BME280;46188;52.324;8.032;2024-02-16T11:14:40;100051.25;;;13.07;100.00
60345;BME280;46188;52.324;8.032;2024-02-16T11:17:10;100068.00;;;13.07;100.00
60345;BME280;46188;52.324;8.032;2024-02-16T11:19:36;100058.31;;;13.08;100.00
60345;BME280;46188;52.324;8.032;2024-02-16T11:22:06;100055.66;;;13.08;100.00
60345;BME280;46188;52.324;8.032;2024-02-16T11:24:36;100055.66;;;13.08;100.00
60345;BME280;46188;52.324;8.032;2024-02-16T11:27:05;100060.03;;;13.09;100.00
60345;BME280;46188;52.324;8.032;2024-02-16T11:29:37;100066.22;;;13.11;100.00
60345;BME280;46188;52.324;8.032;2024-02-16T11:32:06;100062.66;;;13.12;100.00
60345;BME280;46188;52.324;8.032;2024-02-16T11:34:33;100062.66;;;13.15;100.00
60345;BME280;46188;52.324;8.032;2024-02-16T11:36:59;100062.66;;;13.17;100.00
60345;BME280;46188;52.324;8.032;2024-02-16T11:39:26;100075.88;;;13.20;100.00
60345;BME280;46188;52.324;8.032;2024-02-16T11:42:08;100064.41;;;13.22;100.00
60345;BME280;46188;52.324;8.032;2024-02-16T11:44:36;100065.25;;;13.24;100.00
60345;BME280;46188;52.324;8.032;2024-02-16T11:47:03;100071.41;;;13.26;100.00
60345;BME280;46188;52.324;8.032;2024-02-16T11:49:29;100077.56;;;13.27;100.00
60345;BME280;46188;52.324;8.032;2024-02-16T11:51:55;100085.50;;;13.28;100.00
60345;BME280;46188;52.324;8.032;2024-02-16T11:54:20;100070.53;;;13.27;100.00
60345;BME280;46188;52.324;8.032;2024-02-16T11:56:47;100075.84;;;13.27;100.00
60345;BME280;46188;52.324;8.032;2024-02-16T11:59:15;100069.63;;;13.27;100.00
60345;BME280;46188;52.324;8.032;2024-02-16T12:04:24;100075.84;;;13.26;100.00
60345;BME280;46188;52.324;8.032;2024-02-16T12:06:51;100082.88;;;13.25;100.00
60345;BME280;46188;52.324;8.032;2024-02-16T12:09:16;100078.50;;;13.26;100.00
60345;BME280;46188;52.324;8.032;2024-02-16T12:11:42;100082.00;;;13.26;100.00
60345;BME280;46188;52.324;8.032;2024-02-16T12:14:07;100081.13;;;13.27;100.00
60345;BME280;46188;52.324;8.032;2024-02-16T12:16:32;100089.94;;;13.29;100.00
60345;BME280;46188;52.324;8.032;2024-02-16T12:19:07;100081.13;;;13.31;100.00
60345;BME280;46188;52.324;8.032;2024-02-16T12:21:33;100083.75;;;13.31;100.00
60345;BME280;46188;52.324;8.032;2024-02-16T12:23:58;100087.31;;;13.33;100.00
60345;BME280;46188;52.324;8.032;2024-02-16T12:26:24;100088.16;;;13.33;100.00
60345;BME280;46188;52.324;8.032;2024-02-16T12:28:49;100091.69;;;13.35;100.00
60345;BME280;46188;52.324;8.032;2024-02-16T12:31:21;100086.38;;;13.37;100.00
60345;BME280;46188;52.324;8.032;2024-02-16T12:33:47;100085.50;;;13.35;100.00
60345;BME280;46188;52.324;8.032;2024-02-16T12:36:12;100096.97;;;13.37;100.00
60345;BME280;46188;52.324;8.032;2024-02-16T12:38:37;100087.28;;;13.36;100.00
60345;BME280;46188;52.324;8.032;2024-02-16T12:41:03;100093.44;;;13.36;100.00
60345;BME280;46188;52.324;8.032;2024-02-16T12:43:28;100092.56;;;13.36;100.00